Time;durP1;ratioP1;P1;durP2;ratioP2;P2;SDS_P1;SDS_P2;PMS_P1;PMS_P2;Temp;Humidity;BMP_temperature;BMP_pressure;BME280_temperature;BME280_humidity;BME280_pressure;Samples;Min_cycle;Max_cycle;Signal;HPM_P1;HPM_P2
2023/09/19 00:01:40;;;;;;;4.13;1.70;;;;;;;26.22;49.96;99732.31;4975554;28;20042;-77
2023/09/19 00:04:09;;;;;;;4.75;1.60;;;;;;;26.21;50.39;99736.81;4960071;28;20037;-77
2023/09/19 00:06:38;;;;;;;4.00;1.83;;;;;;;26.22;49.79;99733.16;4955990;29;20150;-78
2023/09/19 00:09:04;;;;;;;7.60;2.38;;;;;;;26.22;50.09;99734.97;4955962;29;20509;-78
2023/09/19 00:11:30;;;;;;;5.45;1.83;;;;;;;26.19;50.33;99738.75;4955816;29;20028;-77
2023/09/19 00:13:57;;;;;;;3.63;1.42;;;;;;;26.20;50.35;99739.59;4955943;29;20039;-77
2023/09/19 00:16:22;;;;;;;3.95;1.60;;;;;;;26.19;50.11;99728.03;4955978;29;20027;-77
2023/09/19 00:18:49;;;;;;;5.03;1.98;;;;;;;26.18;50.49;99737.06;4956006;29;20110;-78
2023/09/19 00:21:15;;;;;;;5.50;2.00;;;;;;;26.17;50.53;99732.69;4955770;29;20110;-78
2023/09/19 00:23:41;;;;;;;4.43;1.65;;;;;;;26.16;50.61;99744.34;4955586;29;20031;-77
2023/09/19 00:26:06;;;;;;;4.25;1.70;;;;;;;26.14;50.36;99740.94;4955431;29;20488;-78
2023/09/19 00:28:32;;;;;;;5.13;1.98;;;;;;;26.14;50.47;99740.94;4972836;28;20019;-78
2023/09/19 00:31:01;;;;;;;3.85;1.58;;;;;;;26.12;51.00;99737.53;4975047;28;20098;-77
2023/09/19 00:33:29;;;;;;;4.85;1.75;;;;;;;26.12;50.84;99727.69;4957410;28;20077;-77
2023/09/19 00:35:56;;;;;;;4.15;1.85;;;;;;;26.09;50.73;99727.06;4974844;28;20109;-78
2023/09/19 00:38:24;;;;;;;5.80;1.95;;;;;;;26.08;50.74;99720.88;4957124;28;20118;-78
2023/09/19 00:40:53;;;;;;;5.78;1.80;;;;;;;26.07;50.72;99729.03;4955447;29;20019;-77
2023/09/19 00:43:19;;;;;;;4.88;2.00;;;;;;;26.05;50.93;99722.94;4955374;29;20031;-77
2023/09/19 00:45:48;;;;;;;3.90;1.60;;;;;;;26.06;51.08;99730.84;4938112;29;20030;-78
2023/09/19 00:48:15;;;;;;;5.13;1.88;;;;;;;26.01;51.20;99733.88;4955349;29;20064;-78
2023/09/19 00:50:43;;;;;;;4.43;1.88;;;;;;;26.03;51.09;99732.91;4955358;29;20502;-77
2023/09/19 00:53:09;;;;;;;4.55;1.70;;;;;;;25.97;51.16;99735.09;4954701;28;20503;-78
2023/09/19 00:55:37;;;;;;;4.50;1.70;;;;;;;25.94;51.25;99735.34;4955320;28;20062;-77
2023/09/19 00:58:03;;;;;;;4.85;1.60;;;;;;;25.95;51.37;99733.53;4955077;29;20031;-78
2023/09/19 01:00:29;;;;;;;4.57;1.60;;;;;;;25.93;50.95;99736.31;4955013;29;20031;-77
2023/09/19 01:02:54;;;;;;;4.93;1.80;;;;;;;25.90;51.20;99736.53;4971246;28;20382;-76
2023/09/19 01:05:20;;;;;;;4.43;1.90;;;;;;;25.94;50.93;99734.47;4974151;28;20050;-77
2023/09/19 01:07:48;;;;;;;4.13;2.03;;;;;;;25.91;50.97;99732.06;4956530;28;20035;-77
2023/09/19 01:10:16;;;;;;;5.13;1.60;;;;;;;25.91;51.52;99735.56;4971511;28;20038;-77
2023/09/19 01:12:54;;;;;;;5.72;2.03;;;;;;;25.92;50.99;99725.72;4955051;29;20027;-77
2023/09/19 01:15:40;;;;;;;6.18;1.77;;;;;;;25.89;51.09;99732.16;4954838;29;20031;-77
2023/09/19 01:18:24;;;;;;;3.83;1.50;;;;;;;25.87;51.50;99739.47;4937152;29;20490;-77
2023/09/19 01:21:18;;;;;;;4.93;1.58;;;;;;;25.86;51.42;99733.25;4954510;29;20495;-78
2023/09/19 01:24:08;;;;;;;2.85;1.50;;;;;;;25.88;51.34;99735.81;4954170;28;20130;-78
2023/09/19 01:26:49;;;;;;;4.57;1.70;;;;;;;25.87;51.22;99723.41;4956463;28;20031;-77
2023/09/19 01:29:39;;;;;;;6.68;1.95;;;;;;;25.84;51.52;99724.50;4974044;28;20035;-77
2023/09/19 01:32:06;;;;;;;4.75;1.70;;;;;;;25.83;51.18;99727.28;4973791;28;20019;-77
2023/09/19 01:34:50;;;;;;;6.00;1.98;;;;;;;25.83;51.37;99729.97;4974029;28;20026;-77
2023/09/19 01:37:20;;;;;;;4.35;1.77;;;;;;;25.83;51.15;99727.28;4973493;28;20050;-76
2023/09/19 01:39:52;;;;;;;4.47;1.70;;;;;;;25.82;51.26;99725.59;4953245;29;20028;-77
2023/09/19 01:42:40;;;;;;;3.25;1.33;;;;;;;25.81;51.34;99713.22;4954357;29;20039;-78
2023/09/19 01:45:27;;;;;;;5.13;1.98;;;;;;;25.81;51.54;99719.38;4954491;29;20035;-77
2023/09/19 01:47:57;;;;;;;3.78;1.27;;;;;;;25.82;51.06;99714.91;4954649;29;20039;-77
2023/09/19 01:50:40;;;;;;;4.38;1.73;;;;;;;25.81;51.37;99713.22;4954275;28;20070;-77
2023/09/19 01:53:13;;;;;;;3.58;1.38;;;;;;;25.81;51.50;99718.56;4953979;29;20035;-76
2023/09/19 01:55:49;;;;;;;4.32;1.50;;;;;;;25.81;51.25;99710.53;4954178;29;20027;-77
2023/09/19 01:58:46;;;;;;;3.40;1.42;;;;;;;25.79;51.47;99720.47;4954290;29;20083;-76
2023/09/19 02:01:14;;;;;;;;;;;;;;;25.77;51.20;99717.94;4942927;29;20475;-77
2023/09/19 02:03:40;;;;;;;5.40;1.90;;;;;;;25.77;51.48;99707.25;4954049;29;19918;-77
2023/09/19 02:06:11;;;;;;;4.95;1.60;;;;;;;25.76;51.22;99712.72;4936737;29;20118;-77
2023/09/19 02:08:36;;;;;;;3.53;1.45;;;;;;;25.74;51.50;99707.47;4958167;28;20030;-77
2023/09/19 02:11:02;;;;;;;4.85;1.67;;;;;;;25.77;51.43;99712.59;4973416;28;20035;-77
2023/09/19 02:13:28;;;;;;;4.07;1.75;;;;;;;25.77;51.41;99706.38;4973120;28;20027;-76
2023/09/19 02:15:53;;;;;;;3.30;1.65;;;;;;;25.74;51.50;99708.34;4973480;28;20041;-77
2023/09/19 02:18:19;;;;;;;3.28;1.65;;;;;;;25.76;51.31;99710.03;4973328;28;20078;-77
2023/09/19 02:20:45;;;;;;;4.50;1.70;;;;;;;25.73;51.38;99706.63;4972699;28;20070;-77
2023/09/19 02:23:12;;;;;;;3.10;1.55;;;;;;;25.74;51.10;99704.81;4973108;28;20038;-76
2023/09/19 02:25:39;;;;;;;3.40;1.52;;;;;;;25.76;51.32;99704.69;4973344;28;20122;-77
2023/09/19 02:28:05;;;;;;;4.65;1.52;;;;;;;25.72;51.05;99699.56;4955925;28;20387;-77
2023/09/19 02:30:31;;;;;;;4.30;1.80;;;;;;;25.72;51.43;99696.91;4977173;28;20383;-76
2023/09/19 02:32:56;;;;;;;4.28;1.73;;;;;;;25.72;51.01;99691.56;4977305;28;20027;-77
2023/09/19 02:35:22;;;;;;;5.10;2.10;;;;;;;25.72;51.26;99683.53;4976678;28;20047;-76
2023/09/19 02:37:48;;;;;;;2.92;1.50;;;;;;;25.73;51.05;99687.91;4975891;28;20034;-77
2023/09/19 02:40:21;;;;;;;4.03;1.85;;;;;;;25.72;50.93;99688.88;4957543;29;20027;-77
2023/09/19 02:42:53;;;;;;;3.30;1.35;;;;;;;25.71;51.27;99681.84;4957378;29;20082;-76
2023/09/19 02:45:19;;;;;;;5.55;1.83;;;;;;;25.71;50.99;99683.69;4942320;28;20023;-76
2023/09/19 02:47:45;;;;;;;4.53;1.75;;;;;;;25.68;50.92;99682.09;4977060;28;20034;-76
2023/09/19 02:50:12;;;;;;;4.57;1.80;;;;;;;25.70;51.26;99682.81;4976399;28;20027;-76
2023/09/19 02:52:38;;;;;;;3.47;1.70;;;;;;;25.67;51.47;99674.19;4976907;28;20031;-77
2023/09/19 02:55:05;;;;;;;5.18;1.85;;;;;;;25.69;51.42;99673.09;4959431;28;20429;-77
2023/09/19 02:57:33;;;;;;;3.92;1.63;;;;;;;25.67;51.36;99668.84;4976847;28;20023;-76
2023/09/19 03:00:00;;;;;;;6.18;1.70;;;;;;;25.67;51.27;99669.69;4976827;28;20027;-77
2023/09/19 03:02:27;;;;;;;4.07;1.60;;;;;;;25.64;51.19;99666.41;4962421;28;20020;-77
2023/09/19 03:04:53;;;;;;;5.18;1.50;;;;;;;25.65;51.35;99666.28;4956809;29;20031;-77
2023/09/19 03:07:18;;;;;;;5.15;1.83;;;;;;;25.64;51.13;99669.94;4957368;29;20019;-77
2023/09/19 03:09:44;;;;;;;5.30;1.70;;;;;;;25.65;51.32;99665.44;4957244;29;20101;-77
2023/09/19 03:12:10;;;;;;;4.18;1.70;;;;;;;25.64;51.12;99669.94;4976563;28;20588;-77
2023/09/19 03:14:36;;;;;;;5.55;1.70;;;;;;;25.66;51.02;99667.97;4976400;28;20031;-77
2023/09/19 03:17:04;;;;;;;5.30;2.00;;;;;;;25.65;50.98;99676.97;4976395;28;20030;-78
2023/09/19 03:19:30;;;;;;;3.60;1.45;;;;;;;25.64;51.10;99675.28;4976064;28;20039;-76
2023/09/19 03:21:57;;;;;;;4.78;2.00;;;;;;;25.64;51.01;99680.63;4976404;28;20498;-77
2023/09/19 03:24:23;;;;;;;4.20;1.55;;;;;;;25.62;51.31;99676.38;4976156;28;20097;-77
2023/09/19 03:26:48;;;;;;;5.10;1.58;;;;;;;25.61;51.07;99675.50;4976059;28;20034;-77
2023/09/19 03:29:15;;;;;;;5.35;1.88;;;;;;;25.60;51.33;99672.00;4976257;28;20037;-76
2023/09/19 03:31:41;;;;;;;3.97;1.63;;;;;;;25.61;50.95;99672.81;4975988;28;20031;-76
2023/09/19 03:34:06;;;;;;;5.10;1.65;;;;;;;25.60;51.14;99668.47;4957989;28;20122;-77
2023/09/19 03:36:35;;;;;;;5.18;1.80;;;;;;;25.59;51.03;99664.09;4958240;28;20053;-76
2023/09/19 03:39:01;;;;;;;5.10;2.00;;;;;;;25.59;50.89;99672.09;4956112;28;20031;-77
2023/09/19 03:41:26;;;;;;;3.65;1.40;;;;;;;25.58;51.15;99670.41;4956111;29;20384;-77
2023/09/19 03:43:52;;;;;;;4.47;1.35;;;;;;;25.56;51.16;99673.19;4956264;28;20042;-77
2023/09/19 03:46:18;;;;;;;3.47;1.67;;;;;;;25.58;51.27;99670.41;4956501;29;20087;-76
2023/09/19 03:48:43;;;;;;;5.68;1.80;;;;;;;25.55;50.97;99670.63;4966074;28;20480;-77
2023/09/19 03:51:09;;;;;;;4.72;1.40;;;;;;;25.55;51.05;99670.63;4956619;29;20035;-77
2023/09/19 03:53:34;;;;;;;4.55;1.48;;;;;;;25.56;51.16;99675.03;4956413;29;20035;-76
2023/09/19 03:56:01;;;;;;;2.72;1.35;;;;;;;25.53;51.13;99664.53;4956273;29;20045;-76
2023/09/19 03:58:26;;;;;;;3.58;1.55;;;;;;;25.52;50.92;99671.69;4956150;28;20035;-77
2023/09/19 04:00:55;;;;;;;4.50;1.55;;;;;;;25.52;51.00;99657.50;4954919;29;20114;-77
2023/09/19 04:03:21;;;;;;;4.43;1.77;;;;;;;25.55;50.88;99665.28;4955715;28;20513;-78
2023/09/19 04:05:49;;;;;;;5.60;1.80;;;;;;;25.51;50.95;99658.47;4956261;29;20110;-77
2023/09/19 04:08:15;;;;;;;4.90;1.55;;;;;;;25.50;50.93;99659.41;4956210;28;20027;-77
2023/09/19 04:10:44;;;;;;;3.83;1.75;;;;;;;25.51;50.76;99653.97;4956125;29;20062;-77
2023/09/19 04:13:10;;;;;;;3.75;1.65;;;;;;;25.51;51.01;99661.16;4956065;28;20038;-77
2023/09/19 04:15:37;;;;;;;4.65;1.25;;;;;;;25.48;50.84;99654.22;4956039;29;20158;-77
2023/09/19 04:18:03;;;;;;;5.30;1.80;;;;;;;25.47;50.96;99664.03;4956766;28;20042;-77
2023/09/19 04:20:28;;;;;;;4.03;1.90;;;;;;;25.48;50.90;99662.22;4957796;28;20029;-76
2023/09/19 04:22:54;;;;;;;4.18;1.77;;;;;;;25.48;51.01;99657.72;4974984;28;20030;-77
2023/09/19 04:25:20;;;;;;;5.40;1.63;;;;;;;25.47;50.99;99658.69;4975128;28;20023;-77
2023/09/19 04:27:46;;;;;;;5.15;1.20;;;;;;;25.50;50.97;99656.75;4974963;28;20031;-77
2023/09/19 04:30:12;;;;;;;5.35;1.98;;;;;;;25.48;51.03;99651.53;4975045;28;20059;-77
2023/09/19 04:32:41;;;;;;;3.88;1.70;;;;;;;25.49;50.83;99655.91;4961750;28;20082;-76
2023/09/19 04:35:08;;;;;;;5.20;1.70;;;;;;;25.47;50.83;99650.69;4955339;28;20027;-77
2023/09/19 04:37:39;;;;;;;4.70;1.63;;;;;;;25.46;50.95;99656.13;4955648;29;20024;-77
2023/09/19 04:40:12;;;;;;;3.90;1.60;;;;;;;25.44;51.05;99658.94;4936418;29;20023;-77
2023/09/19 04:42:38;;;;;;;4.65;1.90;;;;;;;25.47;51.11;99657.84;4950756;29;20090;-77
2023/09/19 04:45:04;;;;;;;4.30;1.55;;;;;;;25.45;50.94;99654.44;4937724;29;20031;-76
2023/09/19 04:47:30;;;;;;;4.05;1.73;;;;;;;25.43;50.70;99656.38;4955205;29;20024;-77
2023/09/19 04:49:58;;;;;;;4.25;1.60;;;;;;;25.42;50.83;99655.53;4955599;29;20510;-77
2023/09/19 04:52:23;;;;;;;3.63;1.42;;;;;;;25.43;50.87;99653.72;4972280;28;20033;-77
2023/09/19 04:54:48;;;;;;;5.50;1.60;;;;;;;25.47;51.08;99648.00;4974546;28;20102;-77
2023/09/19 04:57:15;;;;;;;4.20;1.50;;;;;;;25.42;51.07;99647.50;4955486;28;20074;-77
2023/09/19 04:59:41;;;;;;;4.65;1.60;;;;;;;25.43;51.08;99649.22;4954525;28;20031;-77
2023/09/19 05:02:08;;;;;;;4.93;1.80;;;;;;;25.41;50.69;99652.97;4954923;29;20391;-77
2023/09/19 05:04:33;;;;;;;4.82;1.55;;;;;;;25.42;51.07;99655.53;4954925;29;20034;-77
2023/09/19 05:06:59;;;;;;;4.40;1.58;;;;;;;25.41;50.86;99658.31;4955041;29;20394;-77
2023/09/19 05:09:26;;;;;;;6.38;1.95;;;;;;;25.37;51.15;99663.03;4954913;29;20031;-77
2023/09/19 05:11:52;;;;;;;4.20;1.67;;;;;;;25.39;51.09;99654.91;4959831;28;20031;-77
2023/09/19 05:14:18;;;;;;;3.70;1.52;;;;;;;25.37;51.21;99665.72;4956415;28;20030;-77
2023/09/19 05:16:44;;;;;;;4.03;1.40;;;;;;;25.36;50.96;99661.34;4973978;28;20022;-77
2023/09/19 05:19:11;;;;;;;3.30;1.45;;;;;;;25.36;50.96;99665.84;4974312;28;20529;-77
2023/09/19 05:21:38;;;;;;;5.13;1.70;;;;;;;25.35;50.89;99664.97;4974226;28;20027;-77
2023/09/19 05:24:06;;;;;;;4.22;1.50;;;;;;;25.36;50.93;99672.03;4969232;28;20085;-77
2023/09/19 05:26:32;;;;;;;3.58;1.60;;;;;;;25.33;50.94;99674.94;4971960;28;20038;-77
2023/09/19 05:28:57;;;;;;;5.43;1.90;;;;;;;25.33;51.30;99675.78;4955268;29;20082;-78
2023/09/19 05:31:24;;;;;;;5.35;1.77;;;;;;;25.33;51.20;99677.63;4954139;29;20027;-73
2023/09/19 05:33:49;;;;;;;5.82;1.80;;;;;;;25.33;51.17;99682.97;4954617;29;20098;-74
2023/09/19 05:36:16;;;;;;;6.88;1.90;;;;;;;25.30;51.24;99677.84;4968017;28;20141;-74
2023/09/19 05:38:45;;;;;;;3.75;1.95;;;;;;;25.29;51.00;99682.34;4965260;28;20114;-74
2023/09/19 05:41:13;;;;;;;5.10;1.77;;;;;;;25.31;51.32;99690.22;4954227;29;20039;-75
2023/09/19 05:43:40;;;;;;;3.70;1.70;;;;;;;25.31;51.27;99687.53;4953908;29;20034;-73
2023/09/19 05:46:06;;;;;;;5.90;1.95;;;;;;;25.29;51.25;99687.69;4965812;28;20023;-74
2023/09/19 05:48:33;;;;;;;4.55;1.70;;;;;;;25.31;50.87;99690.22;4973415;28;20034;-74
2023/09/19 05:50:59;;;;;;;4.50;1.40;;;;;;;25.29;51.00;99703.72;4973352;28;20023;-74
2023/09/19 05:53:24;;;;;;;3.90;1.63;;;;;;;25.28;51.07;99703.81;4973427;28;20105;-74
2023/09/19 05:55:50;;;;;;;3.92;1.65;;;;;;;25.29;50.53;99702.84;4964102;28;20110;-74
2023/09/19 05:58:17;;;;;;;5.03;1.67;;;;;;;25.28;51.16;99707.31;4953559;28;20151;-74
2023/09/19 06:00:44;;;;;;;6.15;2.40;;;;;;;25.28;51.10;99707.31;4954349;29;20038;-74
2023/09/19 06:03:11;;;;;;;4.85;1.95;;;;;;;25.29;50.87;99721.53;4953797;29;20039;-74
2023/09/19 06:05:40;;;;;;;4.10;1.58;;;;;;;25.28;51.10;99712.66;4961231;28;20038;-74
2023/09/19 06:08:07;;;;;;;5.03;1.83;;;;;;;25.27;51.01;99710.13;4973429;28;20034;-74
2023/09/19 06:10:36;;;;;;;4.25;1.70;;;;;;;25.25;51.30;99722.72;4973354;28;20034;-74
2023/09/19 06:13:06;;;;;;;4.85;1.85;;;;;;;25.27;51.00;99723.47;4973063;28;20487;-74
2023/09/19 06:15:33;;;;;;;5.63;1.77;;;;;;;25.27;51.07;99723.47;4969780;28;20081;-74
2023/09/19 06:17:59;;;;;;;5.10;1.55;;;;;;;25.26;50.88;99724.44;4959941;28;20019;-73
2023/09/19 06:20:26;;;;;;;5.25;1.90;;;;;;;25.26;50.91;99727.97;4953941;29;20034;-74
2023/09/19 06:22:52;;;;;;;4.63;1.77;;;;;;;25.27;50.96;99720.81;4953711;29;20035;-74
2023/09/19 06:25:21;;;;;;;5.07;2.03;;;;;;;25.28;50.78;99727.84;4958347;28;20022;-74
2023/09/19 06:27:53;;;;;;;6.15;2.03;;;;;;;25.27;51.05;99720.81;4961097;28;20113;-74
2023/09/19 06:30:20;;;;;;;4.53;1.60;;;;;;;25.24;51.23;99729.03;4953864;29;20372;-74
2023/09/19 06:32:45;;;;;;;5.13;1.88;;;;;;;25.27;50.77;99731.50;4954046;29;20078;-75
2023/09/19 06:35:16;;;;;;;5.35;1.63;;;;;;;25.29;51.08;99729.56;4957090;28;20027;-74
2023/09/19 06:37:42;;;;;;;3.97;1.60;;;;;;;25.28;51.06;99723.34;4972554;28;20487;-74
2023/09/19 06:40:15;;;;;;;4.22;1.65;;;;;;;25.27;50.82;99720.81;4945211;29;20019;-74
2023/09/19 06:42:46;;;;;;;3.47;1.40;;;;;;;25.29;50.96;99724.22;4948958;29;20043;-74
2023/09/19 06:45:17;;;;;;;4.47;1.80;;;;;;;25.30;50.87;99731.25;4957343;28;20031;-74
2023/09/19 06:47:43;;;;;;;4.82;1.92;;;;;;;25.32;51.08;99723.97;4961730;28;20028;-74
2023/09/19 06:50:13;;;;;;;3.70;1.80;;;;;;;25.30;51.03;99731.25;4956143;28;20050;-74
2023/09/19 06:52:41;;;;;;;4.00;1.50;;;;;;;25.33;50.85;99723.03;4953635;29;20019;-74
2023/09/19 06:55:09;;;;;;;4.70;1.58;;;;;;;25.33;50.90;99720.34;4956369;28;20026;-74
2023/09/19 06:57:34;;;;;;;4.28;1.63;;;;;;;25.33;50.71;99720.34;4962236;28;20436;-74
2023/09/19 07:00:01;;;;;;;3.88;1.63;;;;;;;25.32;51.04;99721.28;4953561;29;20027;-74
2023/09/19 07:02:27;;;;;;;5.38;1.77;;;;;;;25.32;50.80;99726.63;4953515;29;20067;-74
2023/09/19 07:04:52;;;;;;;4.38;1.95;;;;;;;25.33;51.10;99725.69;4954009;28;20047;-74
2023/09/19 07:07:17;;;;;;;4.82;1.60;;;;;;;25.27;51.03;99724.31;4964998;28;20019;-73
2023/09/19 07:09:43;;;;;;;3.85;1.70;;;;;;;25.34;50.99;99728.22;4953501;29;20042;-74
2023/09/19 07:12:08;;;;;;;3.95;1.55;;;;;;;25.36;51.03;99728.09;4953164;29;20068;-74
2023/09/19 07:14:34;;;;;;;3.67;1.42;;;;;;;25.32;50.96;99729.31;4954176;28;20604;-74
2023/09/19 07:17:03;;;;;;;5.15;1.98;;;;;;;25.33;51.05;99725.69;4974073;28;20030;-73
2023/09/19 07:19:30;;;;;;;3.38;1.73;;;;;;;25.36;50.71;99722.78;4976114;28;20061;-74
2023/09/19 07:21:55;;;;;;;5.30;1.90;;;;;;;25.34;50.73;99717.53;4976100;28;20098;-74
2023/09/19 07:24:23;;;;;;;4.32;1.80;;;;;;;25.31;51.04;99717.78;4959749;28;20125;-74
2023/09/19 07:26:49;;;;;;;4.40;1.70;;;;;;;25.32;50.95;99729.31;4968489;28;20034;-74
2023/09/19 07:29:15;;;;;;;5.82;1.80;;;;;;;25.37;51.10;99716.47;4956754;29;20027;-74
2023/09/19 07:31:40;;;;;;;4.25;1.77;;;;;;;25.37;50.88;99716.47;4956761;29;20468;-74
2023/09/19 07:34:06;;;;;;;4.15;1.80;;;;;;;25.34;51.04;99717.53;4956519;29;20041;-74
2023/09/19 07:36:34;;;;;;;5.50;1.60;;;;;;;25.30;50.84;99720.56;4969754;28;20121;-73
2023/09/19 07:39:00;;;;;;;3.70;1.63;;;;;;;25.37;50.82;99721.78;4964543;28;20023;-74
2023/09/19 07:41:25;;;;;;;4.13;1.63;;;;;;;25.38;50.79;99728.88;4956133;29;20032;-74
2023/09/19 07:43:51;;;;;;;4.22;1.77;;;;;;;25.39;50.58;99727.03;4956476;28;20039;-74
2023/09/19 07:46:16;;;;;;;3.65;1.63;;;;;;;25.39;50.88;99725.22;4967498;28;20390;-74
2023/09/19 07:48:44;;;;;;;6.10;1.98;;;;;;;25.41;50.90;99722.41;4975691;28;20026;-74
2023/09/19 07:51:09;;;;;;;4.13;1.60;;;;;;;25.39;50.76;99725.22;4975547;28;20031;-74
2023/09/19 07:53:35;;;;;;;4.85;1.63;;;;;;;25.40;51.02;99732.25;4975261;28;20505;-74
2023/09/19 07:56:05;;;;;;;5.53;1.88;;;;;;;25.42;50.95;99727.66;4966390;28;20416;-74
2023/09/19 07:58:31;;;;;;;4.82;1.83;;;;;;;25.40;50.84;99721.59;4956257;29;20492;-74
2023/09/19 08:01:02;;;;;;;3.90;1.63;;;;;;;25.41;50.70;99728.63;4955941;29;20035;-74
2023/09/19 08:03:27;;;;;;;4.57;2.10;;;;;;;25.42;50.85;99729.47;4956008;28;20499;-74
2023/09/19 08:05:52;;;;;;;4.03;1.90;;;;;;;25.42;50.66;99733.00;4963558;28;20065;-74
2023/09/19 08:08:18;;;;;;;4.60;1.50;;;;;;;25.37;50.95;99737.81;4975057;28;20027;-74
2023/09/19 08:10:45;;;;;;;3.95;1.70;;;;;;;25.40;50.62;99732.25;4975275;28;20114;-74
2023/09/19 08:13:14;;;;;;;3.70;1.67;;;;;;;25.40;50.80;99742.94;4975230;28;20042;-74
2023/09/19 08:15:44;;;;;;;3.50;1.70;;;;;;;25.39;50.87;99741.25;4969284;28;20030;-74
2023/09/19 08:18:13;;;;;;;5.18;1.70;;;;;;;25.39;50.67;99741.25;4938606;29;20432;-74
2023/09/19 08:20:38;;;;;;;4.32;1.80;;;;;;;25.39;50.69;99743.06;4955657;29;20027;-74
2023/09/19 08:23:04;;;;;;;4.90;2.13;;;;;;;25.40;50.97;99742.94;4955113;29;20050;-74
2023/09/19 08:25:29;;;;;;;4.13;1.67;;;;;;;25.42;50.64;99751.69;4959732;28;20030;-74
2023/09/19 08:27:57;;;;;;;5.90;1.58;;;;;;;25.43;50.62;99753.38;4975133;28;20407;-74
2023/09/19 08:30:24;;;;;;;3.67;1.95;;;;;;;25.42;50.60;99757.03;4974580;28;20027;-74
2023/09/19 08:32:51;;;;;;;3.53;1.50;;;;;;;25.40;50.78;99756.31;4938466;29;20027;-74
2023/09/19 08:35:16;;;;;;;4.85;1.63;;;;;;;25.39;50.76;99757.28;4945999;28;20039;-74
2023/09/19 08:37:45;;;;;;;4.32;1.80;;;;;;;25.36;50.65;99762.84;4973877;28;20538;-74
2023/09/19 08:40:12;;;;;;;3.50;1.70;;;;;;;25.35;51.17;99755.78;4955534;29;20035;-74
2023/09/19 08:42:55;;;;;;;3.90;1.40;;;;;;;25.37;51.07;99759.19;4962095;28;20106;-74
2023/09/19 08:45:27;;;;;;;4.32;1.65;;;;;;;25.37;51.09;99758.34;4971641;28;20070;-74
2023/09/19 08:48:25;;;;;;;4.03;1.80;;;;;;;25.39;51.04;99759.09;4954975;29;20019;-74
2023/09/19 08:51:01;;;;;;;6.72;2.03;;;;;;;25.38;50.83;99750.25;4955178;28;20035;-74
2023/09/19 08:53:49;;;;;;;4.45;1.55;;;;;;;25.38;50.88;99755.56;4954859;29;20038;-74
2023/09/19 08:56:17;;;;;;;5.00;2.10;;;;;;;25.40;50.91;99747.44;4958490;28;20039;-74
2023/09/19 08:58:59;;;;;;;4.53;1.77;;;;;;;25.40;50.82;99758.97;4974359;28;20093;-74
2023/09/19 09:01:27;;;;;;;4.60;1.65;;;;;;;25.41;51.08;99758.00;4974406;28;20035;-74
2023/09/19 09:03:54;;;;;;;6.50;1.65;;;;;;;25.41;50.93;99760.69;4974382;28;20030;-74
2023/09/19 09:06:24;;;;;;;4.93;1.83;;;;;;;25.40;50.93;99755.44;4968364;28;20027;-74
2023/09/19 09:08:51;;;;;;;5.68;1.95;;;;;;;25.40;50.80;99748.28;4939375;29;20546;-74
2023/09/19 09:11:20;;;;;;;5.03;1.60;;;;;;;25.41;50.81;99752.66;4954715;28;20483;-74
2023/09/19 09:13:46;;;;;;;6.38;1.83;;;;;;;25.45;50.91;99755.94;4954591;29;20023;-75
2023/09/19 09:16:13;;;;;;;5.50;1.80;;;;;;;25.47;50.73;99754.88;4964049;28;20053;-74
2023/09/19 09:18:40;;;;;;;4.05;1.42;;;;;;;25.45;51.07;99755.94;4974190;28;20031;-74
2023/09/19 09:21:06;;;;;;;6.70;2.10;;;;;;;25.48;51.05;99756.56;4967503;28;20394;-74
2023/09/19 09:23:32;;;;;;;4.10;1.45;;;;;;;25.50;51.06;99755.59;4954569;29;20023;-74
2023/09/19 09:26:02;;;;;;;6.22;1.77;;;;;;;25.51;50.93;99755.47;4961746;28;20026;-74
2023/09/19 09:28:30;;;;;;;5.75;1.95;;;;;;;25.50;50.76;99752.91;4973879;28;20029;-74
2023/09/19 09:30:58;;;;;;;4.47;1.42;;;;;;;25.53;50.69;99747.34;4973889;28;20098;-74
2023/09/19 09:33:23;;;;;;;3.45;1.20;;;;;;;25.52;50.79;99740.31;4973875;28;20050;-74
2023/09/19 09:35:56;;;;;;;4.05;1.33;;;;;;;25.54;50.59;99739.25;4967036;28;20130;-75
2023/09/19 09:38:32;;;;;;;6.35;2.00;;;;;;;25.56;50.73;99737.31;4952810;28;20062;-74
2023/09/19 09:41:01;;;;;;;4.13;1.42;;;;;;;25.59;50.48;99741.56;4954203;29;20039;-75
2023/09/19 09:43:39;;;;;;;5.28;1.65;;;;;;;25.63;50.49;99739.53;4954357;29;20043;-74
2023/09/19 09:46:54;;;;;;;5.47;2.22;;;;;;;25.63;50.80;99739.53;4962131;28;20061;-75
2023/09/19 09:51:43;;;;;;;4.50;1.70;;;;;;;25.68;50.78;99730.19;4935124;29;20051;-74
2023/09/19 09:54:22;;;;;;;4.95;1.48;;;;;;;25.67;50.58;99731.13;4934918;29;20510;-74
2023/09/19 09:57:13;;;;;;;3.70;1.50;;;;;;;25.71;50.76;99735.28;4961576;28;20043;-74
2023/09/19 09:59:52;;;;;;;3.55;1.63;;;;;;;25.71;50.74;99729.94;4973498;28;20034;-74
2023/09/19 10:02:29;;;;;;;3.47;1.20;;;;;;;25.74;50.83;99734.19;4973264;28;20114;-74
2023/09/19 10:05:09;;;;;;;4.97;1.60;;;;;;;25.73;50.49;99735.19;4968510;28;20026;-74
2023/09/19 10:07:38;;;;;;;4.90;1.48;;;;;;;25.73;50.42;99730.66;4934936;29;20024;-75
2023/09/19 10:10:09;;;;;;;5.35;1.55;;;;;;;25.74;50.48;99727.06;4934852;29;20685;-75
2023/09/19 10:12:41;;;;;;;2.97;1.20;;;;;;;25.74;50.31;99729.72;4936217;29;20114;-74
2023/09/19 10:15:10;;;;;;;4.07;1.42;;;;;;;25.76;50.42;99728.75;4953683;28;20104;-74
2023/09/19 10:17:39;;;;;;;5.43;1.45;;;;;;;25.76;50.59;99732.25;4934915;29;20108;-75
2023/09/19 10:20:17;;;;;;;3.90;1.52;;;;;;;25.76;50.47;99726.06;4934600;29;20039;-74
2023/09/19 10:22:56;;;;;;;6.00;1.63;;;;;;;25.77;50.28;99730.44;4937174;29;20027;-74
2023/09/19 10:25:25;;;;;;;4.07;1.67;;;;;;;25.78;50.53;99730.34;4955279;28;20031;-74
2023/09/19 10:27:53;;;;;;;5.00;1.60;;;;;;;25.79;50.75;99726.69;4973104;28;20043;-75
2023/09/19 10:30:20;;;;;;;5.30;1.63;;;;;;;25.79;50.45;99732.03;4973297;28;20394;-75
2023/09/19 10:32:51;;;;;;;3.75;1.33;;;;;;;25.80;50.56;99723.03;4973217;28;20031;-74
2023/09/19 10:35:17;;;;;;;4.22;1.42;;;;;;;25.81;50.58;99726.56;4966007;28;20073;-74
2023/09/19 10:37:49;;;;;;;4.97;1.60;;;;;;;25.82;50.44;99722.91;4960038;28;20055;-74
2023/09/19 10:40:16;;;;;;;5.43;1.40;;;;;;;25.81;50.45;99713.22;4953807;29;20383;-74
2023/09/19 10:42:42;;;;;;;4.38;1.30;;;;;;;25.82;50.72;99706.88;4953500;29;20027;-74
2023/09/19 10:45:13;;;;;;;5.18;1.40;;;;;;;25.83;50.83;99705.91;4952697;28;20031;-74
2023/09/19 10:47:39;;;;;;;3.35;1.30;;;;;;;25.83;50.71;99700.56;4969997;28;20031;-74
2023/09/19 10:50:12;;;;;;;3.78;1.40;;;;;;;25.84;50.49;99702.25;4974072;28;20023;-75
2023/09/19 10:52:42;;;;;;;3.42;1.20;;;;;;;25.84;50.50;99699.59;4976783;28;20042;-74
2023/09/19 10:55:09;;;;;;;3.55;1.33;;;;;;;25.85;50.81;99690.59;4970598;28;20031;-74
2023/09/19 10:57:36;;;;;;;2.53;1.15;;;;;;;25.85;50.42;99682.56;4966117;28;20113;-74
2023/09/19 11:00:24;;;;;;;5.10;1.60;;;;;;;25.85;50.41;99690.59;4957166;29;20031;-75
2023/09/19 11:03:16;;;;;;;5.25;2.03;;;;;;;25.86;50.69;99686.97;4956765;29;20108;-75
2023/09/19 11:05:42;;;;;;;3.55;1.20;;;;;;;25.86;50.53;99685.13;4960692;28;20042;-74
2023/09/19 11:08:09;;;;;;;4.03;1.30;;;;;;;25.87;50.44;99683.31;4976389;28;20027;-74
2023/09/19 11:10:50;;;;;;;4.07;1.42;;;;;;;25.88;50.43;99682.34;4976487;28;20027;-74
2023/09/19 11:13:31;;;;;;;4.68;1.40;;;;;;;25.89;50.65;99672.53;4976210;28;20106;-74
2023/09/19 11:15:57;;;;;;;3.17;1.25;;;;;;;25.90;50.69;99668.88;4969024;28;20101;-74
2023/09/19 11:18:40;;;;;;;2.88;1.10;;;;;;;25.88;50.71;99666.31;4976693;28;20034;-77
2023/09/19 11:21:31;;;;;;;3.13;1.10;;;;;;;25.90;50.79;99660.84;4959581;28;20126;-78
2023/09/19 11:24:30;;;;;;;2.95;1.15;;;;;;;25.90;50.50;99664.34;4954453;28;20447;-77
2023/09/19 11:27:13;;;;;;;4.10;1.40;;;;;;;25.90;50.58;99653.66;4932733;29;20066;-77
2023/09/19 11:29:40;;;;;;;3.65;1.27;;;;;;;25.91;50.41;99650.00;4954081;28;20035;-78
2023/09/19 11:32:06;;;;;;;4.13;1.33;;;;;;;25.91;50.50;99646.50;4954713;28;20038;-78
2023/09/19 11:34:44;;;;;;;3.70;1.00;;;;;;;25.92;50.50;99648.19;4953071;28;20496;-77
2023/09/19 11:37:11;;;;;;;3.65;1.02;;;;;;;25.91;50.40;99650.00;4954202;28;20055;-78
2023/09/19 11:39:38;;;;;;;4.80;1.30;;;;;;;25.92;50.80;99646.38;4953863;28;20038;-78
2023/09/19 11:42:43;;;;;;;3.42;1.08;;;;;;;25.92;50.74;99641.03;4955366;28;20035;-78
2023/09/19 11:45:46;;;;;;;3.78;1.35;;;;;;;25.94;50.58;99635.56;4954633;28;20027;-76
2023/09/19 11:48:15;;;;;;;4.20;1.48;;;;;;;25.94;50.75;99636.41;4950988;28;20118;-79